Ana Sayfa
METAR-TAF:

METAR-TAF

Havaalanları :

Clinton, Kuzey Carolina, Amerika Birleşik Devletleri

Enlem: 34-58-32N, Boylam: 078-21-53W, yükseklik: 45 m

Güncel hava durumu gözlemi

Rapor saat 06:35 UTC de 25 dakika önce yapıldı.
Rüzgar kuzeydan 7 kt, kuzeybatı ve kuzey/kuzeydoğu arasında değişken
Sıcaklık 9°C
Nem 93%
Basınç 1003 hPa
Görüş mesafesi: 16.1 km
1100 ft yükseklikte çok bulutlu

METAR: KCTZ 010635Z AUTO 36007KT 320V020 10SM OVC011 09/08 A2961 RMK AO2 T00850083

Saat: 03:00 (07:00 UTC)


TAF: eksik

4.000'den fazla havaalanı için hava durumu gözlemleri ve tahminleri (METAR ve TAF raporları).

Kullanılabilir istasyonlar harita üzerinde sarı ve kırmızı noktalarla gösterilir.

İstasyonun adını görmek için fareyi noktanın üzerinde gezdirin.

Sonrasında hava gözlem ve tahminlerini görmek için tıklayın.

Haritayı değiştirmek için: yaklaştırmak için siyah artı işaretli yeşil düğmeye ve uzaklaştırmak için de eksi işaretli düğmeye hızla tıklayın; bitişik haritalar için yeşil okları kullanın.


METAR-TAF: